createdAt,value
2019-05-13T00:00:50.164Z,2.50
2019-05-13T00:03:20.070Z,4.23
2019-05-13T00:05:49.918Z,2.93
2019-05-13T00:08:21.731Z,2.70
2019-05-13T00:10:51.260Z,3.20
2019-05-13T00:13:21.101Z,3.83
2019-05-13T00:15:50.866Z,2.73
2019-05-13T00:18:20.571Z,2.77
2019-05-13T00:20:50.312Z,2.97
2019-05-13T00:23:20.214Z,3.23
2019-05-13T00:25:50.101Z,3.17
2019-05-13T00:28:19.999Z,3.00
2019-05-13T00:30:50.043Z,2.73
2019-05-13T00:33:19.803Z,3.00
2019-05-13T00:35:49.638Z,2.83
2019-05-13T00:38:19.547Z,2.83
2019-05-13T00:40:49.530Z,2.87
2019-05-13T00:43:19.474Z,2.83
2019-05-13T00:45:49.476Z,2.93
2019-05-13T00:48:19.273Z,3.53
2019-05-13T00:50:49.084Z,2.67
2019-05-13T00:53:18.996Z,2.83
2019-05-13T00:55:48.831Z,3.00
2019-05-13T00:58:18.615Z,2.97
2019-05-13T01:00:48.484Z,3.17
2019-05-13T01:03:18.421Z,2.70
2019-05-13T01:05:48.291Z,2.70
2019-05-13T01:08:18.175Z,3.23
2019-05-13T01:10:48.028Z,2.90
2019-05-13T01:13:17.773Z,2.87
2019-05-13T01:15:47.612Z,3.03
2019-05-13T01:18:17.373Z,2.97
2019-05-13T01:20:47.295Z,3.37
2019-05-13T01:23:17.098Z,2.87
2019-05-13T01:25:46.832Z,2.63
2019-05-13T01:28:16.603Z,2.63
2019-05-13T01:30:46.436Z,2.80
2019-05-13T01:33:16.242Z,2.33
2019-05-13T01:35:46.047Z,2.90
2019-05-13T01:38:15.856Z,3.17
2019-05-13T01:40:45.768Z,3.53
2019-05-13T01:43:15.652Z,3.73
2019-05-13T01:45:45.464Z,2.70
2019-05-13T01:48:15.228Z,2.60
2019-05-13T01:50:45.004Z,3.57
2019-05-13T01:53:14.887Z,3.13
2019-05-13T01:55:44.633Z,3.57
2019-05-13T01:58:14.776Z,2.93
2019-05-13T02:00:44.862Z,2.70
2019-05-13T02:03:14.809Z,3.60
2019-05-13T02:05:44.616Z,2.57
2019-05-13T02:08:14.642Z,3.03
2019-05-13T02:10:55.056Z,2.50
2019-05-13T02:13:26.353Z,2.63
2019-05-13T02:15:56.874Z,2.90
2019-05-13T02:18:26.805Z,2.60
2019-05-13T02:20:56.767Z,3.43
2019-05-13T02:23:26.594Z,2.63
2019-05-13T02:25:56.417Z,2.87
2019-05-13T02:28:26.209Z,3.40
2019-05-13T02:30:57.022Z,2.97
2019-05-13T02:33:27.065Z,2.57
2019-05-13T02:35:56.917Z,2.53
2019-05-13T02:38:30.721Z,3.00
2019-05-13T02:40:58.090Z,2.90
2019-05-13T02:43:27.911Z,2.80
2019-05-13T02:45:57.831Z,3.13
2019-05-13T02:48:27.600Z,3.00
2019-05-13T02:50:57.455Z,3.10
2019-05-13T02:53:27.175Z,2.40
2019-05-13T02:55:57.017Z,3.43
2019-05-13T02:58:26.845Z,2.47
2019-05-13T03:00:56.649Z,3.20
2019-05-13T03:03:26.487Z,3.70
2019-05-13T03:05:56.271Z,2.53
2019-05-13T03:08:39.375Z,2.87
2019-05-13T03:10:57.557Z,3.40
2019-05-13T03:13:32.566Z,3.47
2019-05-13T03:16:09.041Z,3.13
2019-05-13T03:18:38.939Z,3.20
2019-05-13T03:21:12.405Z,3.20
2019-05-13T03:23:43.656Z,2.77
2019-05-13T03:26:13.003Z,2.87
2019-05-13T03:28:43.954Z,3.33
2019-05-13T03:31:16.930Z,2.77
2019-05-13T03:33:47.370Z,2.83
2019-05-13T03:36:17.896Z,3.00
2019-05-13T03:39:01.553Z,3.03
2019-05-13T03:41:22.849Z,3.83
2019-05-13T03:43:56.003Z,3.63
2019-05-13T03:46:26.886Z,3.17
2019-05-13T03:49:02.118Z,2.37
2019-05-13T03:51:32.700Z,3.70
2019-05-13T03:54:03.258Z,2.73
2019-05-13T03:56:33.817Z,2.80
2019-05-13T03:59:03.719Z,3.20
2019-05-13T04:01:33.717Z,3.20
2019-05-13T04:04:03.657Z,3.00
2019-05-13T04:06:33.601Z,3.57
2019-05-13T04:09:21.059Z,2.70
2019-05-13T04:11:37.515Z,3.00
2019-05-13T04:14:07.485Z,2.80
2019-05-13T04:16:37.489Z,3.50
2019-05-13T04:19:07.586Z,3.37
2019-05-13T04:21:37.757Z,3.40
2019-05-13T04:24:07.645Z,3.20
2019-05-13T04:26:37.452Z,2.63
2019-05-13T04:29:07.360Z,2.33
2019-05-13T04:31:37.306Z,2.53
2019-05-13T04:34:07.169Z,2.73
2019-05-13T04:36:37.053Z,2.87
2019-05-13T04:39:07.473Z,2.87
2019-05-13T04:41:37.418Z,3.10
2019-05-13T04:44:07.373Z,3.03
2019-05-13T04:46:37.269Z,2.80
2019-05-13T04:49:07.185Z,2.70
2019-05-13T04:51:37.160Z,3.40
2019-05-13T04:54:06.996Z,2.90
2019-05-13T04:56:36.884Z,2.80
2019-05-13T04:59:06.731Z,3.03
2019-05-13T05:02:13.001Z,3.07
2019-05-13T05:05:22.251Z,2.80
2019-05-13T05:08:22.490Z,3.23
2019-05-13T05:11:31.891Z,3.07
2019-05-13T05:14:32.478Z,3.13
2019-05-13T05:17:25.341Z,3.03
2019-05-13T05:20:04.193Z,3.00
2019-05-13T05:22:52.140Z,2.50
2019-05-13T05:25:32.302Z,2.97
2019-05-13T05:28:11.204Z,2.73
2019-05-13T05:31:02.345Z,2.80
2019-05-13T05:33:57.849Z,3.43
2019-05-13T05:36:52.671Z,2.70
2019-05-13T05:39:27.288Z,2.97
2019-05-13T05:41:58.714Z,2.67
2019-05-13T05:44:32.484Z,2.57
2019-05-13T05:47:03.524Z,2.90
2019-05-13T05:49:33.545Z,2.87
2019-05-13T05:52:06.184Z,3.03
2019-05-13T05:54:38.604Z,2.90
2019-05-13T05:57:11.898Z,2.63
2019-05-13T05:59:42.635Z,2.60
2019-05-13T06:02:12.985Z,2.70
2019-05-13T06:04:44.244Z,2.53
2019-05-13T06:07:14.262Z,2.10
2019-05-13T06:09:44.142Z,2.60
2019-05-13T06:12:14.143Z,2.10
2019-05-13T06:14:44.515Z,2.40
2019-05-13T06:17:14.413Z,2.20
2019-05-13T06:19:44.486Z,2.40
2019-05-13T06:22:14.555Z,2.70
2019-05-13T06:24:44.342Z,2.77
2019-05-13T06:27:18.391Z,2.80
2019-05-13T06:29:52.854Z,2.30
2019-05-13T06:32:26.602Z,2.40
2019-05-13T06:34:56.718Z,2.07
2019-05-13T06:37:26.760Z,2.10
2019-05-13T06:39:56.926Z,2.00
2019-05-13T06:42:26.842Z,1.70
2019-05-13T06:44:56.617Z,2.77
2019-05-13T06:47:26.466Z,2.27
2019-05-13T06:49:56.345Z,2.47
2019-05-13T06:52:26.396Z,1.87
2019-05-13T06:54:56.140Z,2.13
2019-05-13T06:57:25.901Z,2.40
2019-05-13T06:59:55.713Z,2.30
2019-05-13T07:02:25.465Z,2.10
2019-05-13T07:04:55.323Z,2.83
2019-05-13T07:07:25.064Z,2.63
2019-05-13T07:09:54.831Z,2.40
2019-05-13T07:12:24.716Z,2.30
2019-05-13T07:14:54.610Z,2.13
2019-05-13T07:17:24.334Z,3.00
2019-05-13T07:19:54.223Z,2.30
2019-05-13T07:22:23.970Z,1.80
2019-05-13T07:24:53.747Z,2.50
2019-05-13T07:27:23.492Z,2.80
2019-05-13T07:29:55.491Z,2.43
2019-05-13T07:32:24.770Z,2.20
2019-05-13T07:34:54.672Z,2.70
2019-05-13T07:37:24.460Z,2.13
2019-05-13T07:39:54.356Z,1.93
2019-05-13T07:42:24.073Z,2.03
2019-05-13T07:44:53.843Z,1.90
2019-05-13T07:47:23.608Z,2.20
2019-05-13T07:49:53.283Z,2.10
2019-05-13T07:52:23.002Z,1.97
2019-05-13T07:54:52.655Z,1.83
2019-05-13T07:57:22.431Z,2.00
2019-05-13T07:59:52.531Z,1.50
2019-05-13T08:02:22.262Z,1.73
2019-05-13T08:04:53.120Z,1.73
2019-05-13T08:07:23.946Z,1.73
2019-05-13T08:09:56.091Z,2.20
2019-05-13T08:12:25.012Z,2.30
2019-05-13T08:14:54.693Z,1.77
2019-05-13T08:17:24.728Z,1.70
2019-05-13T08:19:54.398Z,1.47
2019-05-13T08:22:24.243Z,1.87
2019-05-13T08:24:54.554Z,2.27
2019-05-13T08:27:30.307Z,1.57
2019-05-13T08:29:55.881Z,1.90
2019-05-13T08:32:25.564Z,1.87
2019-05-13T08:35:01.229Z,1.57
2019-05-13T08:37:26.682Z,1.20
2019-05-13T08:39:58.018Z,1.50
2019-05-13T08:42:27.772Z,1.50
2019-05-13T08:44:57.442Z,1.70
2019-05-13T08:47:27.345Z,1.57
2019-05-13T08:50:00.498Z,1.60
2019-05-13T08:52:28.479Z,1.83
2019-05-13T08:54:58.324Z,1.30
2019-05-13T08:57:28.115Z,1.60
2019-05-13T08:59:57.923Z,1.33
2019-05-13T09:02:27.683Z,1.60
2019-05-13T09:04:57.378Z,1.40
2019-05-13T09:07:27.131Z,1.07
2019-05-13T09:09:56.935Z,1.37
2019-05-13T09:12:31.953Z,1.60
2019-05-13T09:14:58.000Z,1.40
2019-05-13T09:17:27.670Z,1.27
2019-05-13T09:19:57.354Z,1.30
2019-05-13T09:22:27.126Z,1.37
2019-05-13T09:24:56.861Z,1.83
2019-05-13T09:27:26.573Z,1.77
2019-05-13T09:29:56.239Z,1.80
2019-05-13T09:32:26.029Z,1.53
2019-05-13T09:34:55.724Z,1.50
2019-05-13T09:37:25.432Z,1.90
2019-05-13T09:39:55.118Z,1.60
2019-05-13T09:42:24.782Z,1.57
2019-05-13T09:44:54.491Z,1.73
2019-05-13T09:47:28.221Z,1.27
2019-05-13T09:49:55.624Z,1.33
2019-05-13T09:52:25.365Z,1.07
2019-05-13T09:54:55.061Z,1.60
2019-05-13T09:57:24.724Z,1.47
2019-05-13T09:59:54.459Z,1.20
2019-05-13T10:02:24.142Z,1.40
2019-05-13T10:04:53.841Z,1.40
2019-05-13T10:07:23.560Z,1.47
2019-05-13T10:09:53.325Z,1.47
2019-05-13T10:12:24.405Z,1.60
2019-05-13T10:14:54.450Z,1.80
2019-05-13T10:17:24.132Z,2.30
2019-05-13T10:19:53.842Z,1.83
2019-05-13T10:22:23.730Z,2.07
2019-05-13T10:24:53.526Z,1.57
2019-05-13T10:27:24.589Z,1.70
2019-05-13T10:29:54.599Z,1.47
2019-05-13T10:32:24.292Z,1.60
2019-05-13T10:34:54.596Z,1.40
2019-05-13T10:37:24.482Z,1.60
2019-05-13T10:39:54.579Z,1.77
2019-05-13T10:42:24.452Z,1.57
2019-05-13T10:44:54.304Z,1.50
2019-05-13T10:47:24.023Z,2.40
2019-05-13T10:49:53.717Z,1.60
2019-05-13T10:52:23.432Z,1.67
2019-05-13T10:54:53.161Z,2.10
2019-05-13T10:57:22.805Z,1.60
2019-05-13T10:59:52.943Z,1.40
2019-05-13T11:02:22.707Z,1.60
2019-05-13T11:04:52.764Z,1.67
2019-05-13T11:07:23.532Z,1.70
2019-05-13T11:09:53.303Z,1.70
2019-05-13T11:12:27.996Z,1.27
2019-05-13T11:14:55.444Z,1.57
2019-05-13T11:17:30.908Z,1.70
2019-05-13T11:19:56.821Z,1.73
2019-05-13T11:22:26.500Z,1.43
2019-05-13T11:24:56.192Z,1.60
2019-05-13T11:27:26.017Z,1.40
2019-05-13T11:29:55.695Z,1.60
2019-05-13T11:32:25.454Z,2.10
2019-05-13T11:34:55.206Z,1.80
2019-05-13T11:37:24.911Z,1.90
2019-05-13T11:39:54.669Z,2.10
2019-05-13T11:42:24.355Z,2.03
2019-05-13T11:44:54.220Z,1.77
2019-05-13T11:47:23.887Z,1.70
2019-05-13T11:49:53.581Z,2.60
2019-05-13T11:52:23.254Z,1.60
2019-05-13T11:54:53.768Z,1.80
2019-05-13T11:57:25.295Z,1.80
2019-05-13T11:59:55.021Z,2.10
2019-05-13T12:02:24.689Z,1.70
2019-05-13T12:04:54.438Z,1.70
2019-05-13T12:07:25.252Z,1.73
2019-05-13T12:09:54.993Z,1.70
2019-05-13T12:12:30.528Z,1.57
2019-05-13T12:15:22.244Z,1.80
2019-05-13T12:17:27.857Z,1.63
2019-05-13T12:19:57.531Z,1.70
2019-05-13T12:22:27.245Z,1.80
2019-05-13T12:24:57.025Z,1.90
2019-05-13T12:27:26.687Z,2.13
2019-05-13T12:29:56.386Z,1.70
2019-05-13T12:32:26.097Z,1.43
2019-05-13T12:34:55.769Z,1.80
2019-05-13T12:37:25.455Z,1.60
2019-05-13T12:39:55.153Z,1.80
2019-05-13T12:42:24.823Z,1.80
2019-05-13T12:45:09.430Z,1.93
2019-05-13T12:47:25.919Z,1.70
2019-05-13T12:49:55.662Z,2.00
2019-05-13T12:52:25.426Z,1.73
2019-05-13T12:54:55.421Z,1.70
2019-05-13T12:57:25.147Z,1.43
2019-05-13T12:59:54.844Z,1.87
2019-05-13T13:02:24.597Z,1.93
2019-05-13T13:05:10.814Z,1.80
2019-05-13T13:07:25.842Z,1.80
2019-05-13T13:09:55.693Z,1.50
2019-05-13T13:12:34.138Z,1.83
2019-05-13T13:14:56.874Z,1.53
2019-05-13T13:17:26.597Z,1.70
2019-05-13T13:20:04.754Z,1.50
2019-05-13T13:22:27.792Z,1.93
2019-05-13T13:24:57.869Z,1.70
2019-05-13T13:27:57.845Z,1.60
2019-05-13T13:30:04.293Z,1.53
2019-05-13T13:32:33.100Z,1.70
2019-05-13T13:35:03.634Z,1.70
2019-05-13T13:37:35.214Z,1.70
2019-05-13T13:40:06.829Z,1.80
2019-05-13T13:42:36.538Z,1.50
2019-05-13T13:45:07.135Z,1.40
2019-05-13T13:47:36.871Z,1.40
2019-05-13T13:50:07.476Z,1.43
2019-05-13T13:52:37.198Z,1.30
2019-05-13T13:57:38.413Z,1.73
2019-05-13T14:00:26.589Z,1.40
2019-05-13T14:02:43.199Z,1.60
2019-05-13T14:05:12.701Z,1.60
2019-05-13T14:07:09.298Z,1.43
2019-05-13T14:07:42.770Z,1.67
2019-05-13T14:10:12.798Z,1.93
2019-05-13T14:12:42.571Z,1.57
2019-05-13T14:15:13.101Z,1.87
2019-05-13T14:17:42.793Z,1.77
2019-05-13T14:20:13.328Z,1.40
2019-05-13T14:22:43.030Z,1.53
2019-05-13T14:25:13.321Z,1.27
2019-05-13T14:27:43.128Z,1.40
2019-05-13T14:30:13.055Z,1.80
2019-05-13T14:32:42.783Z,1.60
2019-05-13T14:35:13.120Z,1.40
2019-05-13T14:37:42.841Z,1.40
2019-05-13T14:40:14.543Z,1.40
2019-05-13T14:42:46.137Z,1.43
2019-05-13T14:45:21.355Z,1.33
2019-05-13T14:47:55.660Z,1.67
2019-05-13T14:50:25.479Z,1.40
2019-05-13T14:52:55.335Z,1.90
2019-05-13T14:55:25.306Z,1.30
2019-05-13T14:57:55.124Z,1.43
2019-05-13T15:00:25.427Z,1.43
2019-05-13T15:02:55.230Z,1.80
2019-05-13T15:05:25.077Z,1.50
2019-05-13T15:08:01.323Z,1.87
2019-05-13T15:10:31.574Z,1.47
2019-05-13T15:13:02.989Z,1.50
2019-05-13T15:15:33.125Z,1.63
2019-05-13T15:18:02.932Z,1.50
2019-05-13T15:20:33.271Z,1.40
2019-05-13T15:23:03.021Z,1.93
2019-05-13T15:25:33.030Z,1.60
2019-05-13T15:28:03.024Z,1.57
2019-05-13T15:30:33.073Z,1.73
2019-05-13T15:33:02.808Z,1.97
2019-05-13T15:35:32.637Z,1.77
2019-05-13T15:38:02.419Z,1.60
2019-05-13T15:40:32.505Z,1.73
2019-05-13T15:43:03.478Z,1.70
2019-05-13T15:45:33.272Z,1.27
2019-05-13T15:48:03.018Z,1.43
2019-05-13T15:50:32.835Z,1.30
2019-05-13T15:53:03.014Z,1.80
2019-05-13T15:55:32.869Z,1.70
2019-05-13T15:58:02.719Z,1.30
2019-05-13T16:00:32.603Z,1.60
2019-05-13T16:03:02.530Z,1.50
2019-05-13T16:05:32.300Z,1.47
2019-05-13T16:08:13.375Z,1.40
2019-05-13T16:10:43.225Z,1.50
2019-05-13T16:13:12.969Z,1.40
2019-05-13T16:15:42.795Z,1.90
2019-05-13T16:18:12.632Z,1.60
2019-05-13T16:20:45.065Z,1.90
2019-05-13T16:23:13.897Z,2.20
2019-05-13T16:25:43.720Z,1.60
2019-05-13T16:28:13.569Z,2.00
2019-05-13T16:30:43.455Z,1.40
2019-05-13T16:33:13.488Z,1.93
2019-05-13T16:35:43.347Z,1.60
2019-05-13T16:38:13.116Z,1.60
2019-05-13T16:40:43.757Z,1.70
2019-05-13T16:43:13.546Z,1.40
2019-05-13T16:45:43.442Z,1.53
2019-05-13T16:48:13.344Z,1.90
2019-05-13T16:50:43.066Z,1.60
2019-05-13T16:53:12.916Z,1.60
2019-05-13T16:55:42.986Z,1.50
2019-05-13T16:58:12.802Z,1.70
2019-05-13T17:00:42.722Z,1.83
2019-05-13T17:03:12.483Z,1.47
2019-05-13T17:05:44.008Z,1.27
2019-05-13T17:08:13.727Z,1.57
2019-05-13T17:10:43.571Z,1.40
2019-05-13T17:13:13.431Z,1.43
2019-05-13T17:15:43.376Z,1.30
2019-05-13T17:18:15.389Z,1.33
2019-05-13T17:20:44.743Z,2.50
2019-05-13T17:23:15.804Z,1.40
2019-05-13T17:25:45.732Z,2.83
2019-05-13T17:28:15.621Z,1.80
2019-05-13T17:30:45.501Z,1.80
2019-05-13T17:33:15.331Z,1.30
2019-05-13T17:35:45.155Z,1.47
2019-05-13T17:38:15.061Z,2.23
2019-05-13T17:40:49.567Z,1.87
2019-05-13T17:43:16.531Z,1.60
2019-05-13T17:45:46.235Z,1.50
2019-05-13T17:48:28.428Z,1.50
2019-05-13T17:50:47.839Z,1.57
2019-05-13T17:53:17.705Z,1.50
2019-05-13T17:55:47.488Z,1.60
2019-05-13T17:58:17.387Z,1.60
2019-05-13T18:00:47.176Z,1.57
2019-05-13T18:03:16.859Z,1.60
2019-05-13T18:05:46.700Z,1.20
2019-05-13T18:08:16.605Z,1.40
2019-05-13T18:10:46.526Z,1.87
2019-05-13T18:13:16.432Z,1.40
2019-05-13T18:15:47.865Z,1.40
2019-05-13T18:18:17.693Z,1.30
2019-05-13T18:20:47.396Z,1.50
2019-05-13T18:23:17.067Z,1.20
2019-05-13T18:25:46.841Z,1.40
2019-05-13T18:28:27.724Z,1.87
2019-05-13T18:30:48.172Z,1.43
2019-05-13T18:33:17.829Z,1.70
2019-05-13T18:35:47.585Z,1.60
2019-05-13T18:38:17.267Z,1.20
2019-05-13T18:40:47.099Z,1.20
2019-05-13T18:43:16.864Z,1.43
2019-05-13T18:45:46.622Z,2.07
2019-05-13T18:48:16.307Z,1.60
2019-05-13T18:50:45.993Z,1.67
2019-05-13T18:53:15.722Z,1.40
2019-05-13T18:55:45.652Z,1.87
2019-05-13T18:58:15.310Z,1.83
2019-05-13T19:00:45.012Z,1.90
2019-05-13T19:03:14.819Z,1.47
2019-05-13T19:05:48.525Z,1.60
2019-05-13T19:08:18.257Z,1.70
2019-05-13T19:10:52.054Z,1.93
2019-05-13T19:13:21.805Z,1.50
2019-05-13T19:15:51.910Z,1.50
2019-05-13T19:18:21.592Z,1.30
2019-05-13T19:20:51.474Z,1.50
2019-05-13T19:23:21.262Z,1.53
2019-05-13T19:25:56.923Z,1.63
2019-05-13T19:28:31.670Z,1.40
2019-05-13T19:31:03.775Z,1.57
2019-05-13T19:33:35.835Z,2.20
2019-05-13T19:36:07.916Z,1.60
2019-05-13T19:38:37.893Z,2.03
2019-05-13T19:41:11.839Z,1.73
2019-05-13T19:43:42.145Z,1.40
2019-05-13T19:46:13.209Z,1.57
2019-05-13T19:48:42.901Z,1.50
2019-05-13T19:51:13.533Z,1.80
2019-05-13T19:53:44.979Z,1.50
2019-05-13T19:56:15.090Z,1.50
2019-05-13T19:58:45.303Z,1.50
2019-05-13T20:01:16.083Z,1.80
2019-05-13T20:03:45.821Z,1.47
2019-05-13T20:06:23.531Z,1.60
2019-05-13T20:08:53.383Z,1.60
2019-05-13T20:11:23.505Z,1.50
2019-05-13T20:13:53.424Z,2.00
2019-05-13T20:16:23.485Z,1.80
2019-05-13T20:18:53.327Z,1.73
2019-05-13T20:21:23.324Z,1.70
2019-05-13T20:23:53.198Z,2.00
2019-05-13T20:26:22.891Z,1.63
2019-05-13T20:28:58.017Z,1.80
2019-05-13T20:31:27.684Z,1.80
2019-05-13T20:33:57.357Z,1.83
2019-05-13T20:36:27.056Z,2.77
2019-05-13T20:38:58.695Z,2.00
2019-05-13T20:41:28.386Z,1.80
2019-05-13T20:43:58.105Z,1.70
2019-05-13T20:46:27.763Z,1.77
2019-05-13T20:48:58.062Z,1.87
2019-05-13T20:51:27.821Z,1.97
2019-05-13T20:53:57.520Z,2.13
2019-05-13T20:56:27.257Z,1.90
2019-05-13T20:58:56.933Z,1.90
2019-05-13T21:01:26.590Z,2.03
2019-05-13T21:03:56.419Z,2.00
2019-05-13T21:06:44.640Z,2.33
2019-05-13T21:09:17.015Z,2.20
2019-05-13T21:11:45.824Z,1.57
2019-05-13T21:14:15.585Z,1.90
2019-05-13T21:16:45.242Z,1.80
2019-05-13T21:19:14.930Z,2.07
2019-05-13T21:21:44.601Z,2.30
2019-05-13T21:24:14.684Z,2.10
2019-05-13T21:26:44.461Z,2.10
2019-05-13T21:29:14.129Z,2.37
2019-05-13T21:31:43.852Z,2.20
2019-05-13T21:34:13.557Z,2.53
2019-05-13T21:36:43.680Z,2.00
2019-05-13T21:39:13.394Z,2.27
2019-05-13T21:41:43.067Z,2.17
2019-05-13T21:44:13.000Z,1.87
2019-05-13T21:46:42.684Z,2.50
2019-05-13T21:49:12.408Z,2.07
2019-05-13T21:51:42.069Z,2.30
2019-05-13T21:54:12.015Z,3.67
2019-05-13T21:56:42.652Z,2.70
2019-05-13T21:59:12.583Z,2.20
2019-05-13T22:01:42.499Z,2.07
2019-05-13T22:04:13.074Z,2.20
2019-05-13T22:06:42.768Z,2.27
2019-05-13T22:09:13.214Z,1.90
2019-05-13T22:11:42.874Z,2.50
2019-05-13T22:14:12.632Z,2.10
2019-05-13T22:16:42.551Z,2.50
2019-05-13T22:19:12.470Z,2.47
2019-05-13T22:21:42.518Z,2.27
2019-05-13T22:24:12.330Z,2.67
2019-05-13T22:26:42.242Z,2.20
2019-05-13T22:29:12.101Z,2.10
2019-05-13T22:31:42.399Z,2.20
2019-05-13T22:34:12.317Z,2.40
2019-05-13T22:36:41.967Z,2.60
2019-05-13T22:39:11.693Z,2.27
2019-05-13T22:41:42.148Z,2.30
2019-05-13T22:44:12.130Z,2.40
2019-05-13T22:46:41.832Z,2.23
2019-05-13T22:49:11.797Z,2.23
2019-05-13T22:51:41.675Z,2.50
2019-05-13T22:54:12.005Z,2.30
2019-05-13T22:56:41.752Z,2.50
2019-05-13T22:59:12.228Z,2.47
2019-05-13T23:01:42.211Z,2.50
2019-05-13T23:04:11.907Z,2.40
2019-05-13T23:06:41.618Z,2.57
2019-05-13T23:09:12.492Z,2.47
2019-05-13T23:11:42.371Z,2.87
2019-05-13T23:14:13.447Z,2.60
2019-05-13T23:16:43.470Z,2.57
2019-05-13T23:19:13.244Z,2.40
2019-05-13T23:21:42.913Z,2.57
2019-05-13T23:24:12.589Z,2.40
2019-05-13T23:26:42.459Z,3.00
2019-05-13T23:29:12.143Z,2.80
2019-05-13T23:31:41.802Z,2.60
2019-05-13T23:34:12.139Z,2.97
2019-05-13T23:36:42.301Z,2.70
2019-05-13T23:39:12.279Z,2.50
2019-05-13T23:41:42.015Z,2.70
2019-05-13T23:44:24.091Z,3.03
2019-05-13T23:49:32.231Z,3.07
2019-05-13T23:52:02.569Z,2.47
2019-05-13T23:54:32.413Z,3.17
2019-05-13T23:57:02.216Z,2.67
2019-05-13T23:59:31.979Z,2.77
